sensor_id;sensor_type;location;lat;lon;timestamp;P1;durP1;ratioP1;P2;durP2;ratioP2
2458;SDS011;1241;50.920;6.936;2022-08-19T00:01:22;14.27;;;12.87;;
2458;SDS011;1241;50.920;6.936;2022-08-19T00:03:50;14.73;;;12.60;;
2458;SDS011;1241;50.920;6.936;2022-08-19T00:06:15;15.20;;;13.70;;
2458;SDS011;1241;50.920;6.936;2022-08-19T00:08:41;15.47;;;14.07;;
2458;SDS011;1241;50.920;6.936;2022-08-19T00:11:08;15.70;;;14.23;;
2458;SDS011;1241;50.920;6.936;2022-08-19T00:13:34;15.30;;;13.70;;
2458;SDS011;1241;50.920;6.936;2022-08-19T00:16:01;16.10;;;14.77;;
2458;SDS011;1241;50.920;6.936;2022-08-19T00:18:27;16.10;;;14.60;;
2458;SDS011;1241;50.920;6.936;2022-08-19T00:20:53;15.30;;;13.67;;
2458;SDS011;1241;50.920;6.936;2022-08-19T00:23:19;16.30;;;14.60;;
2458;SDS011;1241;50.920;6.936;2022-08-19T00:25:45;16.10;;;14.80;;
2458;SDS011;1241;50.920;6.936;2022-08-19T00:28:10;15.50;;;14.10;;
2458;SDS011;1241;50.920;6.936;2022-08-19T00:30:36;15.93;;;14.53;;
2458;SDS011;1241;50.920;6.936;2022-08-19T00:33:02;18.30;;;15.60;;
2458;SDS011;1241;50.920;6.936;2022-08-19T00:35:28;16.03;;;14.43;;
2458;SDS011;1241;50.920;6.936;2022-08-19T00:37:54;15.87;;;14.30;;
2458;SDS011;1241;50.920;6.936;2022-08-19T00:40:20;16.07;;;14.40;;
2458;SDS011;1241;50.920;6.936;2022-08-19T00:42:46;17.17;;;15.57;;
2458;SDS011;1241;50.920;6.936;2022-08-19T00:45:17;17.73;;;16.03;;
2458;SDS011;1241;50.920;6.936;2022-08-19T00:47:45;17.80;;;16.10;;
2458;SDS011;1241;50.920;6.936;2022-08-19T00:50:12;15.40;;;13.80;;
2458;SDS011;1241;50.920;6.936;2022-08-19T00:52:42;15.90;;;14.40;;
2458;SDS011;1241;50.920;6.936;2022-08-19T00:55:21;16.87;;;15.30;;
2458;SDS011;1241;50.920;6.936;2022-08-19T00:57:59;18.63;;;16.83;;
2458;SDS011;1241;50.920;6.936;2022-08-19T01:00:32;16.67;;;14.97;;
2458;SDS011;1241;50.920;6.936;2022-08-19T01:03:02;20.23;;;16.37;;
2458;SDS011;1241;50.920;6.936;2022-08-19T01:05:29;18.10;;;16.30;;
2458;SDS011;1241;50.920;6.936;2022-08-19T01:07:56;17.90;;;15.60;;
2458;SDS011;1241;50.920;6.936;2022-08-19T01:10:25;16.87;;;15.13;;
2458;SDS011;1241;50.920;6.936;2022-08-19T01:12:53;17.50;;;15.30;;
2458;SDS011;1241;50.920;6.936;2022-08-19T01:15:24;18.20;;;16.43;;
2458;SDS011;1241;50.920;6.936;2022-08-19T01:17:54;18.50;;;16.70;;
2458;SDS011;1241;50.920;6.936;2022-08-19T01:20:22;16.63;;;15.13;;
2458;SDS011;1241;50.920;6.936;2022-08-19T01:22:50;16.10;;;14.40;;
2458;SDS011;1241;50.920;6.936;2022-08-19T01:25:19;18.30;;;16.57;;
2458;SDS011;1241;50.920;6.936;2022-08-19T01:27:48;16.33;;;14.63;;
2458;SDS011;1241;50.920;6.936;2022-08-19T01:30:21;17.77;;;15.93;;
2458;SDS011;1241;50.920;6.936;2022-08-19T01:32:52;17.87;;;16.13;;
2458;SDS011;1241;50.920;6.936;2022-08-19T01:35:19;16.40;;;14.80;;
2458;SDS011;1241;50.920;6.936;2022-08-19T01:37:49;17.23;;;15.57;;
2458;SDS011;1241;50.920;6.936;2022-08-19T01:40:19;18.07;;;16.37;;
2458;SDS011;1241;50.920;6.936;2022-08-19T01:42:49;16.37;;;14.87;;
2458;SDS011;1241;50.920;6.936;2022-08-19T01:45:17;18.20;;;16.60;;
2458;SDS011;1241;50.920;6.936;2022-08-19T01:47:43;19.30;;;17.40;;
2458;SDS011;1241;50.920;6.936;2022-08-19T01:50:09;18.43;;;16.60;;
2458;SDS011;1241;50.920;6.936;2022-08-19T01:52:36;17.70;;;15.73;;
2458;SDS011;1241;50.920;6.936;2022-08-19T01:55:05;19.03;;;17.20;;
2458;SDS011;1241;50.920;6.936;2022-08-19T01:57:32;17.97;;;16.10;;
2458;SDS011;1241;50.920;6.936;2022-08-19T01:59:58;18.80;;;16.77;;
2458;SDS011;1241;50.920;6.936;2022-08-19T02:02:25;16.87;;;15.17;;
2458;SDS011;1241;50.920;6.936;2022-08-19T02:04:50;18.23;;;16.53;;
2458;SDS011;1241;50.920;6.936;2022-08-19T02:07:18;18.13;;;16.43;;
2458;SDS011;1241;50.920;6.936;2022-08-19T02:09:46;19.30;;;16.63;;
2458;SDS011;1241;50.920;6.936;2022-08-19T02:12:13;23.43;;;18.73;;
2458;SDS011;1241;50.920;6.936;2022-08-19T02:14:39;20.73;;;18.57;;
2458;SDS011;1241;50.920;6.936;2022-08-19T02:17:05;19.67;;;17.77;;
2458;SDS011;1241;50.920;6.936;2022-08-19T02:19:31;20.50;;;17.50;;
2458;SDS011;1241;50.920;6.936;2022-08-19T02:21:58;25.77;;;17.17;;
2458;SDS011;1241;50.920;6.936;2022-08-19T02:24:24;20.47;;;18.47;;
2458;SDS011;1241;50.920;6.936;2022-08-19T02:26:51;19.57;;;17.60;;
2458;SDS011;1241;50.920;6.936;2022-08-19T02:29:17;18.37;;;16.50;;
2458;SDS011;1241;50.920;6.936;2022-08-19T02:31:42;21.23;;;18.17;;
2458;SDS011;1241;50.920;6.936;2022-08-19T02:34:08;18.67;;;16.53;;
2458;SDS011;1241;50.920;6.936;2022-08-19T02:36:34;18.00;;;16.20;;
2458;SDS011;1241;50.920;6.936;2022-08-19T02:38:59;20.30;;;18.23;;
2458;SDS011;1241;50.920;6.936;2022-08-19T02:41:27;19.70;;;17.80;;
2458;SDS011;1241;50.920;6.936;2022-08-19T02:43:55;23.20;;;20.40;;
2458;SDS011;1241;50.920;6.936;2022-08-19T02:46:26;19.43;;;17.63;;
2458;SDS011;1241;50.920;6.936;2022-08-19T02:48:56;19.80;;;17.67;;
2458;SDS011;1241;50.920;6.936;2022-08-19T02:51:27;20.40;;;18.30;;
2458;SDS011;1241;50.920;6.936;2022-08-19T02:53:55;20.27;;;18.13;;
2458;SDS011;1241;50.920;6.936;2022-08-19T02:56:22;21.40;;;19.30;;
2458;SDS011;1241;50.920;6.936;2022-08-19T02:58:49;20.10;;;17.50;;
2458;SDS011;1241;50.920;6.936;2022-08-19T03:01:22;20.27;;;17.97;;
2458;SDS011;1241;50.920;6.936;2022-08-19T03:03:53;21.40;;;19.20;;
2458;SDS011;1241;50.920;6.936;2022-08-19T03:06:20;20.40;;;18.37;;
2458;SDS011;1241;50.920;6.936;2022-08-19T03:08:46;21.40;;;19.13;;
2458;SDS011;1241;50.920;6.936;2022-08-19T03:11:14;20.77;;;18.80;;
2458;SDS011;1241;50.920;6.936;2022-08-19T03:13:42;24.43;;;20.30;;
2458;SDS011;1241;50.920;6.936;2022-08-19T03:16:08;23.43;;;21.03;;
2458;SDS011;1241;50.920;6.936;2022-08-19T03:18:34;21.13;;;19.33;;
2458;SDS011;1241;50.920;6.936;2022-08-19T03:21:00;21.77;;;19.37;;
2458;SDS011;1241;50.920;6.936;2022-08-19T03:23:26;22.60;;;20.30;;
2458;SDS011;1241;50.920;6.936;2022-08-19T03:25:52;27.03;;;21.30;;
2458;SDS011;1241;50.920;6.936;2022-08-19T03:28:19;22.47;;;20.23;;
2458;SDS011;1241;50.920;6.936;2022-08-19T03:33:26;23.90;;;21.40;;
2458;SDS011;1241;50.920;6.936;2022-08-19T03:36:07;22.13;;;19.50;;
2458;SDS011;1241;50.920;6.936;2022-08-19T03:38:42;26.37;;;21.67;;
2458;SDS011;1241;50.920;6.936;2022-08-19T03:41:11;25.43;;;20.60;;
2458;SDS011;1241;50.920;6.936;2022-08-19T03:43:40;23.70;;;20.63;;
2458;SDS011;1241;50.920;6.936;2022-08-19T03:46:07;25.07;;;21.80;;
2458;SDS011;1241;50.920;6.936;2022-08-19T03:48:36;25.47;;;21.97;;
2458;SDS011;1241;50.920;6.936;2022-08-19T03:51:04;24.30;;;21.80;;
2458;SDS011;1241;50.920;6.936;2022-08-19T03:53:31;25.23;;;22.73;;
2458;SDS011;1241;50.920;6.936;2022-08-19T03:55:58;27.30;;;21.13;;
2458;SDS011;1241;50.920;6.936;2022-08-19T03:58:25;25.00;;;21.50;;
2458;SDS011;1241;50.920;6.936;2022-08-19T04:00:53;23.53;;;21.23;;
2458;SDS011;1241;50.920;6.936;2022-08-19T04:03:20;22.37;;;19.90;;
2458;SDS011;1241;50.920;6.936;2022-08-19T04:05:47;26.43;;;21.30;;
2458;SDS011;1241;50.920;6.936;2022-08-19T04:08:15;25.23;;;22.43;;
2458;SDS011;1241;50.920;6.936;2022-08-19T04:10:45;27.60;;;21.83;;
2458;SDS011;1241;50.920;6.936;2022-08-19T04:13:12;24.17;;;21.03;;
2458;SDS011;1241;50.920;6.936;2022-08-19T04:15:39;25.57;;;23.00;;
2458;SDS011;1241;50.920;6.936;2022-08-19T04:18:07;24.37;;;21.20;;
2458;SDS011;1241;50.920;6.936;2022-08-19T04:20:44;25.80;;;23.03;;
2458;SDS011;1241;50.920;6.936;2022-08-19T04:23:12;25.47;;;22.93;;
2458;SDS011;1241;50.920;6.936;2022-08-19T04:25:42;26.53;;;23.70;;
2458;SDS011;1241;50.920;6.936;2022-08-19T04:28:10;25.20;;;22.60;;
2458;SDS011;1241;50.920;6.936;2022-08-19T04:30:45;25.90;;;23.20;;
2458;SDS011;1241;50.920;6.936;2022-08-19T04:33:14;23.90;;;21.60;;
2458;SDS011;1241;50.920;6.936;2022-08-19T04:35:43;24.50;;;22.20;;
2458;SDS011;1241;50.920;6.936;2022-08-19T04:38:10;27.73;;;22.60;;
2458;SDS011;1241;50.920;6.936;2022-08-19T04:40:40;28.53;;;25.70;;
2458;SDS011;1241;50.920;6.936;2022-08-19T04:43:27;28.80;;;24.13;;
2458;SDS011;1241;50.920;6.936;2022-08-19T04:45:53;32.23;;;27.77;;
2458;SDS011;1241;50.920;6.936;2022-08-19T04:48:19;38.37;;;30.83;;
2458;SDS011;1241;50.920;6.936;2022-08-19T04:50:51;34.43;;;29.77;;
2458;SDS011;1241;50.920;6.936;2022-08-19T04:53:23;35.27;;;30.70;;
2458;SDS011;1241;50.920;6.936;2022-08-19T04:55:56;35.57;;;30.80;;
2458;SDS011;1241;50.920;6.936;2022-08-19T04:58:29;37.97;;;30.27;;
2458;SDS011;1241;50.920;6.936;2022-08-19T05:00:55;34.60;;;29.17;;
2458;SDS011;1241;50.920;6.936;2022-08-19T05:03:21;37.83;;;33.73;;
2458;SDS011;1241;50.920;6.936;2022-08-19T05:05:48;36.83;;;32.90;;
2458;SDS011;1241;50.920;6.936;2022-08-19T05:08:15;40.93;;;36.50;;
2458;SDS011;1241;50.920;6.936;2022-08-19T05:10:49;39.40;;;34.77;;
2458;SDS011;1241;50.920;6.936;2022-08-19T05:13:17;40.17;;;34.17;;
2458;SDS011;1241;50.920;6.936;2022-08-19T05:15:45;39.83;;;35.57;;
2458;SDS011;1241;50.920;6.936;2022-08-19T05:18:19;41.60;;;33.90;;
2458;SDS011;1241;50.920;6.936;2022-08-19T05:21:07;42.10;;;37.80;;
2458;SDS011;1241;50.920;6.936;2022-08-19T05:23:53;40.20;;;36.00;;
2458;SDS011;1241;50.920;6.936;2022-08-19T05:26:18;41.07;;;36.13;;
2458;SDS011;1241;50.920;6.936;2022-08-19T05:28:44;39.13;;;35.00;;
2458;SDS011;1241;50.920;6.936;2022-08-19T05:31:10;42.77;;;34.60;;
2458;SDS011;1241;50.920;6.936;2022-08-19T05:33:35;43.43;;;36.73;;
2458;SDS011;1241;50.920;6.936;2022-08-19T05:36:02;42.83;;;36.53;;
2458;SDS011;1241;50.920;6.936;2022-08-19T05:38:28;43.30;;;38.67;;
2458;SDS011;1241;50.920;6.936;2022-08-19T05:40:55;43.60;;;37.57;;
2458;SDS011;1241;50.920;6.936;2022-08-19T05:43:20;43.50;;;37.33;;
2458;SDS011;1241;50.920;6.936;2022-08-19T05:45:46;45.33;;;37.77;;
2458;SDS011;1241;50.920;6.936;2022-08-19T05:48:13;42.57;;;34.10;;
2458;SDS011;1241;50.920;6.936;2022-08-19T05:50:39;45.30;;;38.00;;
2458;SDS011;1241;50.920;6.936;2022-08-19T05:53:06;43.03;;;38.10;;
2458;SDS011;1241;50.920;6.936;2022-08-19T05:55:34;38.97;;;34.50;;
2458;SDS011;1241;50.920;6.936;2022-08-19T05:58:00;45.90;;;37.90;;
2458;SDS011;1241;50.920;6.936;2022-08-19T06:00:27;44.50;;;37.70;;
2458;SDS011;1241;50.920;6.936;2022-08-19T06:02:52;43.83;;;38.17;;
2458;SDS011;1241;50.920;6.936;2022-08-19T06:05:19;43.50;;;35.10;;
2458;SDS011;1241;50.920;6.936;2022-08-19T06:07:45;42.07;;;36.87;;
2458;SDS011;1241;50.920;6.936;2022-08-19T06:10:13;38.60;;;34.40;;
2458;SDS011;1241;50.920;6.936;2022-08-19T06:12:39;40.17;;;35.80;;
2458;SDS011;1241;50.920;6.936;2022-08-19T06:15:07;41.13;;;36.63;;
2458;SDS011;1241;50.920;6.936;2022-08-19T06:17:35;37.43;;;33.40;;
2458;SDS011;1241;50.920;6.936;2022-08-19T06:20:02;38.40;;;34.03;;
2458;SDS011;1241;50.920;6.936;2022-08-19T06:22:29;38.77;;;34.50;;
2458;SDS011;1241;50.920;6.936;2022-08-19T06:24:55;36.90;;;33.03;;
2458;SDS011;1241;50.920;6.936;2022-08-19T06:27:21;39.13;;;34.87;;
2458;SDS011;1241;50.920;6.936;2022-08-19T06:29:48;37.87;;;32.03;;
2458;SDS011;1241;50.920;6.936;2022-08-19T06:32:15;34.70;;;31.13;;
2458;SDS011;1241;50.920;6.936;2022-08-19T06:34:42;40.23;;;32.00;;
2458;SDS011;1241;50.920;6.936;2022-08-19T06:37:08;37.53;;;33.47;;
2458;SDS011;1241;50.920;6.936;2022-08-19T06:39:35;39.33;;;35.33;;
2458;SDS011;1241;50.920;6.936;2022-08-19T06:42:03;35.67;;;32.00;;
2458;SDS011;1241;50.920;6.936;2022-08-19T06:44:34;36.10;;;32.10;;
2458;SDS011;1241;50.920;6.936;2022-08-19T06:47:05;38.40;;;34.33;;
2458;SDS011;1241;50.920;6.936;2022-08-19T06:49:32;36.47;;;31.63;;
2458;SDS011;1241;50.920;6.936;2022-08-19T06:51:59;34.93;;;31.20;;
2458;SDS011;1241;50.920;6.936;2022-08-19T06:54:26;31.43;;;28.10;;
2458;SDS011;1241;50.920;6.936;2022-08-19T06:56:53;34.97;;;31.57;;
2458;SDS011;1241;50.920;6.936;2022-08-19T06:59:20;37.10;;;31.23;;
2458;SDS011;1241;50.920;6.936;2022-08-19T07:01:48;34.77;;;31.10;;
2458;SDS011;1241;50.920;6.936;2022-08-19T07:04:17;34.67;;;31.00;;
2458;SDS011;1241;50.920;6.936;2022-08-19T07:06:47;33.20;;;29.80;;
2458;SDS011;1241;50.920;6.936;2022-08-19T07:09:15;30.30;;;27.27;;
2458;SDS011;1241;50.920;6.936;2022-08-19T07:11:46;55.03;;;37.73;;
2458;SDS011;1241;50.920;6.936;2022-08-19T07:14:14;49.83;;;34.53;;
2458;SDS011;1241;50.920;6.936;2022-08-19T07:16:43;36.90;;;30.93;;
2458;SDS011;1241;50.920;6.936;2022-08-19T07:19:10;33.67;;;30.07;;
2458;SDS011;1241;50.920;6.936;2022-08-19T07:21:37;32.23;;;28.80;;
2458;SDS011;1241;50.920;6.936;2022-08-19T07:24:03;34.27;;;30.67;;
2458;SDS011;1241;50.920;6.936;2022-08-19T07:26:30;34.50;;;30.13;;
2458;SDS011;1241;50.920;6.936;2022-08-19T07:28:58;32.60;;;29.27;;
2458;SDS011;1241;50.920;6.936;2022-08-19T07:31:26;31.93;;;28.50;;
2458;SDS011;1241;50.920;6.936;2022-08-19T07:33:53;31.10;;;27.90;;
2458;SDS011;1241;50.920;6.936;2022-08-19T07:36:23;30.23;;;27.20;;
2458;SDS011;1241;50.920;6.936;2022-08-19T07:38:50;33.00;;;29.50;;
2458;SDS011;1241;50.920;6.936;2022-08-19T07:41:18;34.67;;;30.30;;
2458;SDS011;1241;50.920;6.936;2022-08-19T07:43:46;33.17;;;29.63;;
2458;SDS011;1241;50.920;6.936;2022-08-19T07:46:13;35.27;;;31.57;;
2458;SDS011;1241;50.920;6.936;2022-08-19T07:48:40;37.57;;;33.57;;
2458;SDS011;1241;50.920;6.936;2022-08-19T07:51:08;35.33;;;29.97;;
2458;SDS011;1241;50.920;6.936;2022-08-19T07:53:35;37.83;;;33.73;;
2458;SDS011;1241;50.920;6.936;2022-08-19T07:56:03;38.10;;;31.83;;
2458;SDS011;1241;50.920;6.936;2022-08-19T07:58:30;37.33;;;31.17;;
2458;SDS011;1241;50.920;6.936;2022-08-19T08:00:58;34.40;;;30.80;;
2458;SDS011;1241;50.920;6.936;2022-08-19T08:03:25;39.10;;;30.90;;
2458;SDS011;1241;50.920;6.936;2022-08-19T08:06:11;40.00;;;32.67;;
2458;SDS011;1241;50.920;6.936;2022-08-19T08:08:57;38.93;;;33.30;;
2458;SDS011;1241;50.920;6.936;2022-08-19T08:11:44;36.47;;;32.67;;
2458;SDS011;1241;50.920;6.936;2022-08-19T08:14:19;44.90;;;38.30;;
2458;SDS011;1241;50.920;6.936;2022-08-19T08:16:48;45.03;;;37.03;;
2458;SDS011;1241;50.920;6.936;2022-08-19T08:19:16;44.53;;;36.10;;
2458;SDS011;1241;50.920;6.936;2022-08-19T08:21:43;46.60;;;36.73;;
2458;SDS011;1241;50.920;6.936;2022-08-19T08:24:09;51.57;;;40.00;;
2458;SDS011;1241;50.920;6.936;2022-08-19T08:26:35;41.90;;;36.73;;
2458;SDS011;1241;50.920;6.936;2022-08-19T08:29:01;45.17;;;35.20;;
2458;SDS011;1241;50.920;6.936;2022-08-19T08:31:27;41.07;;;34.77;;
2458;SDS011;1241;50.920;6.936;2022-08-19T08:33:53;44.90;;;36.73;;
2458;SDS011;1241;50.920;6.936;2022-08-19T08:36:19;42.13;;;34.03;;
2458;SDS011;1241;50.920;6.936;2022-08-19T08:38:46;45.87;;;38.20;;
2458;SDS011;1241;50.920;6.936;2022-08-19T08:41:17;42.53;;;35.10;;
2458;SDS011;1241;50.920;6.936;2022-08-19T08:43:48;45.80;;;36.80;;
2458;SDS011;1241;50.920;6.936;2022-08-19T08:48:51;49.23;;;41.83;;
2458;SDS011;1241;50.920;6.936;2022-08-19T08:51:43;45.13;;;37.60;;
2458;SDS011;1241;50.920;6.936;2022-08-19T08:54:18;52.93;;;39.93;;
2458;SDS011;1241;50.920;6.936;2022-08-19T08:56:47;42.90;;;35.30;;
2458;SDS011;1241;50.920;6.936;2022-08-19T09:01:45;44.57;;;38.70;;
2458;SDS011;1241;50.920;6.936;2022-08-19T09:04:11;50.90;;;42.20;;
2458;SDS011;1241;50.920;6.936;2022-08-19T09:06:40;51.17;;;40.40;;
2458;SDS011;1241;50.920;6.936;2022-08-19T09:17:16;38.13;;;33.93;;
2458;SDS011;1241;50.920;6.936;2022-08-19T09:19:53;43.40;;;37.57;;
2458;SDS011;1241;50.920;6.936;2022-08-19T09:22:20;37.87;;;33.93;;
2458;SDS011;1241;50.920;6.936;2022-08-19T09:24:50;38.50;;;31.97;;
2458;SDS011;1241;50.920;6.936;2022-08-19T09:27:19;32.40;;;28.30;;
2458;SDS011;1241;50.920;6.936;2022-08-19T09:29:49;35.03;;;31.60;;
2458;SDS011;1241;50.920;6.936;2022-08-19T09:32:15;28.50;;;25.60;;
2458;SDS011;1241;50.920;6.936;2022-08-19T09:34:43;25.93;;;23.43;;
2458;SDS011;1241;50.920;6.936;2022-08-19T09:37:09;27.70;;;24.97;;
2458;SDS011;1241;50.920;6.936;2022-08-19T09:39:35;28.97;;;26.20;;
2458;SDS011;1241;50.920;6.936;2022-08-19T09:42:00;28.10;;;25.40;;
2458;SDS011;1241;50.920;6.936;2022-08-19T09:44:28;29.60;;;26.80;;
2458;SDS011;1241;50.920;6.936;2022-08-19T09:46:54;30.70;;;27.50;;
2458;SDS011;1241;50.920;6.936;2022-08-19T09:49:21;29.27;;;25.00;;
2458;SDS011;1241;50.920;6.936;2022-08-19T09:51:50;27.57;;;24.57;;
2458;SDS011;1241;50.920;6.936;2022-08-19T09:54:18;25.80;;;23.30;;
2458;SDS011;1241;50.920;6.936;2022-08-19T09:56:44;27.37;;;24.37;;
2458;SDS011;1241;50.920;6.936;2022-08-19T09:59:10;25.60;;;23.10;;
2458;SDS011;1241;50.920;6.936;2022-08-19T10:01:37;31.50;;;28.10;;
2458;SDS011;1241;50.920;6.936;2022-08-19T10:04:03;25.73;;;23.23;;
2458;SDS011;1241;50.920;6.936;2022-08-19T10:06:33;24.23;;;21.93;;
2458;SDS011;1241;50.920;6.936;2022-08-19T10:09:00;25.33;;;22.83;;
2458;SDS011;1241;50.920;6.936;2022-08-19T10:11:28;24.73;;;21.63;;
2458;SDS011;1241;50.920;6.936;2022-08-19T10:13:54;21.57;;;19.40;;
2458;SDS011;1241;50.920;6.936;2022-08-19T10:16:21;25.10;;;22.70;;
2458;SDS011;1241;50.920;6.936;2022-08-19T10:18:47;24.73;;;22.17;;
2458;SDS011;1241;50.920;6.936;2022-08-19T10:21:28;24.00;;;21.80;;
2458;SDS011;1241;50.920;6.936;2022-08-19T10:23:56;24.50;;;22.30;;
2458;SDS011;1241;50.920;6.936;2022-08-19T10:26:28;22.60;;;20.20;;
2458;SDS011;1241;50.920;6.936;2022-08-19T10:28:56;19.97;;;18.20;;
2458;SDS011;1241;50.920;6.936;2022-08-19T10:31:24;18.80;;;17.10;;
2458;SDS011;1241;50.920;6.936;2022-08-19T10:33:52;24.10;;;21.87;;
2458;SDS011;1241;50.920;6.936;2022-08-19T10:36:25;21.70;;;19.80;;
2458;SDS011;1241;50.920;6.936;2022-08-19T10:39:01;21.13;;;19.10;;
2458;SDS011;1241;50.920;6.936;2022-08-19T10:41:31;19.10;;;17.30;;
2458;SDS011;1241;50.920;6.936;2022-08-19T10:44:00;18.07;;;16.47;;
2458;SDS011;1241;50.920;6.936;2022-08-19T10:46:31;22.23;;;20.23;;
2458;SDS011;1241;50.920;6.936;2022-08-19T10:48:58;22.67;;;20.57;;
2458;SDS011;1241;50.920;6.936;2022-08-19T10:51:26;21.27;;;18.90;;
2458;SDS011;1241;50.920;6.936;2022-08-19T10:54:10;20.10;;;18.30;;
2458;SDS011;1241;50.920;6.936;2022-08-19T10:56:36;21.00;;;18.90;;
2458;SDS011;1241;50.920;6.936;2022-08-19T10:59:18;20.27;;;18.50;;
2458;SDS011;1241;50.920;6.936;2022-08-19T11:01:46;24.77;;;20.83;;
2458;SDS011;1241;50.920;6.936;2022-08-19T11:04:12;22.20;;;19.97;;
2458;SDS011;1241;50.920;6.936;2022-08-19T11:06:40;22.67;;;19.70;;
2458;SDS011;1241;50.920;6.936;2022-08-19T11:09:08;24.20;;;22.10;;
2458;SDS011;1241;50.920;6.936;2022-08-19T11:11:36;25.60;;;23.23;;
2458;SDS011;1241;50.920;6.936;2022-08-19T11:14:06;26.20;;;23.47;;
2458;SDS011;1241;50.920;6.936;2022-08-19T11:16:33;25.67;;;23.27;;
2458;SDS011;1241;50.920;6.936;2022-08-19T11:18:59;21.60;;;19.50;;
2458;SDS011;1241;50.920;6.936;2022-08-19T11:21:26;21.80;;;19.80;;
2458;SDS011;1241;50.920;6.936;2022-08-19T11:23:57;19.43;;;17.40;;
2458;SDS011;1241;50.920;6.936;2022-08-19T11:26:29;17.17;;;15.53;;
2458;SDS011;1241;50.920;6.936;2022-08-19T11:28:56;25.30;;;18.33;;
2458;SDS011;1241;50.920;6.936;2022-08-19T11:31:24;23.23;;;18.80;;
2458;SDS011;1241;50.920;6.936;2022-08-19T11:33:51;19.73;;;17.97;;
2458;SDS011;1241;50.920;6.936;2022-08-19T11:36:19;19.70;;;17.90;;
2458;SDS011;1241;50.920;6.936;2022-08-19T11:38:46;19.37;;;17.77;;
2458;SDS011;1241;50.920;6.936;2022-08-19T11:41:14;17.97;;;16.17;;
2458;SDS011;1241;50.920;6.936;2022-08-19T11:43:41;16.23;;;14.93;;
2458;SDS011;1241;50.920;6.936;2022-08-19T11:46:08;17.40;;;16.20;;
2458;SDS011;1241;50.920;6.936;2022-08-19T11:48:36;16.57;;;15.13;;
2458;SDS011;1241;50.920;6.936;2022-08-19T11:51:10;17.80;;;16.20;;
2458;SDS011;1241;50.920;6.936;2022-08-19T11:53:38;16.50;;;15.10;;
2458;SDS011;1241;50.920;6.936;2022-08-19T11:56:05;16.57;;;15.27;;
2458;SDS011;1241;50.920;6.936;2022-08-19T11:58:32;17.60;;;16.07;;
2458;SDS011;1241;50.920;6.936;2022-08-19T12:00:59;14.97;;;13.77;;
2458;SDS011;1241;50.920;6.936;2022-08-19T12:03:25;16.37;;;14.87;;
2458;SDS011;1241;50.920;6.936;2022-08-19T12:05:51;19.37;;;17.47;;
2458;SDS011;1241;50.920;6.936;2022-08-19T12:08:17;18.47;;;16.53;;
2458;SDS011;1241;50.920;6.936;2022-08-19T12:10:43;17.47;;;16.00;;
2458;SDS011;1241;50.920;6.936;2022-08-19T12:13:11;16.50;;;15.00;;
2458;SDS011;1241;50.920;6.936;2022-08-19T12:15:43;17.27;;;15.87;;
2458;SDS011;1241;50.920;6.936;2022-08-19T12:18:10;17.37;;;15.30;;
2458;SDS011;1241;50.920;6.936;2022-08-19T12:20:39;16.20;;;14.50;;
2458;SDS011;1241;50.920;6.936;2022-08-19T12:23:06;15.27;;;13.97;;
2458;SDS011;1241;50.920;6.936;2022-08-19T12:25:34;16.03;;;14.63;;
2458;SDS011;1241;50.920;6.936;2022-08-19T12:28:13;14.63;;;13.33;;
2458;SDS011;1241;50.920;6.936;2022-08-19T12:30:38;13.00;;;11.80;;
2458;SDS011;1241;50.920;6.936;2022-08-19T12:33:04;16.10;;;14.67;;
2458;SDS011;1241;50.920;6.936;2022-08-19T12:35:30;15.37;;;13.87;;
2458;SDS011;1241;50.920;6.936;2022-08-19T12:37:55;13.37;;;12.30;;
2458;SDS011;1241;50.920;6.936;2022-08-19T12:40:21;12.70;;;11.70;;
2458;SDS011;1241;50.920;6.936;2022-08-19T12:42:47;13.83;;;12.77;;
2458;SDS011;1241;50.920;6.936;2022-08-19T12:45:16;17.40;;;15.93;;
2458;SDS011;1241;50.920;6.936;2022-08-19T12:47:41;15.93;;;14.63;;
2458;SDS011;1241;50.920;6.936;2022-08-19T12:50:08;14.30;;;13.10;;
2458;SDS011;1241;50.920;6.936;2022-08-19T12:52:35;17.77;;;16.10;;
2458;SDS011;1241;50.920;6.936;2022-08-19T12:55:07;15.03;;;13.47;;
2458;SDS011;1241;50.920;6.936;2022-08-19T12:57:33;13.37;;;12.17;;
2458;SDS011;1241;50.920;6.936;2022-08-19T13:00:04;13.90;;;12.73;;
2458;SDS011;1241;50.920;6.936;2022-08-19T13:02:39;14.50;;;13.30;;
2458;SDS011;1241;50.920;6.936;2022-08-19T13:05:07;14.53;;;13.10;;
2458;SDS011;1241;50.920;6.936;2022-08-19T13:07:36;15.07;;;13.17;;
2458;SDS011;1241;50.920;6.936;2022-08-19T13:10:04;14.57;;;13.30;;
2458;SDS011;1241;50.920;6.936;2022-08-19T13:12:31;16.17;;;14.67;;
2458;SDS011;1241;50.920;6.936;2022-08-19T13:14:57;15.60;;;14.10;;
2458;SDS011;1241;50.920;6.936;2022-08-19T13:17:22;14.23;;;12.23;;
2458;SDS011;1241;50.920;6.936;2022-08-19T13:19:48;14.20;;;12.90;;
2458;SDS011;1241;50.920;6.936;2022-08-19T13:22:15;14.03;;;12.83;;
2458;SDS011;1241;50.920;6.936;2022-08-19T13:24:41;11.97;;;10.80;;
2458;SDS011;1241;50.920;6.936;2022-08-19T13:27:07;11.83;;;10.73;;
2458;SDS011;1241;50.920;6.936;2022-08-19T13:29:33;12.83;;;10.80;;
2458;SDS011;1241;50.920;6.936;2022-08-19T13:32:17;15.57;;;11.27;;
2458;SDS011;1241;50.920;6.936;2022-08-19T13:35:02;11.10;;;10.17;;
2458;SDS011;1241;50.920;6.936;2022-08-19T13:37:29;11.50;;;10.40;;
2458;SDS011;1241;50.920;6.936;2022-08-19T13:40:24;10.00;;;9.20;;
2458;SDS011;1241;50.920;6.936;2022-08-19T13:42:51;11.00;;;9.90;;
2458;SDS011;1241;50.920;6.936;2022-08-19T13:45:20;10.43;;;9.60;;
2458;SDS011;1241;50.920;6.936;2022-08-19T13:47:52;11.23;;;10.10;;
2458;SDS011;1241;50.920;6.936;2022-08-19T13:50:21;11.67;;;10.50;;
2458;SDS011;1241;50.920;6.936;2022-08-19T13:52:50;10.90;;;9.90;;
2458;SDS011;1241;50.920;6.936;2022-08-19T13:55:17;16.20;;;11.07;;
2458;SDS011;1241;50.920;6.936;2022-08-19T13:57:43;12.17;;;10.97;;
2458;SDS011;1241;50.920;6.936;2022-08-19T14:00:13;11.40;;;10.30;;
2458;SDS011;1241;50.920;6.936;2022-08-19T14:05:51;15.27;;;11.37;;
2458;SDS011;1241;50.920;6.936;2022-08-19T14:08:17;13.73;;;9.70;;
2458;SDS011;1241;50.920;6.936;2022-08-19T14:10:43;10.73;;;9.73;;
2458;SDS011;1241;50.920;6.936;2022-08-19T14:16:58;11.30;;;10.10;;
2458;SDS011;1241;50.920;6.936;2022-08-19T14:19:24;10.90;;;10.00;;
2458;SDS011;1241;50.920;6.936;2022-08-19T14:21:50;13.47;;;12.13;;
2458;SDS011;1241;50.920;6.936;2022-08-19T14:24:15;13.73;;;10.77;;
2458;SDS011;1241;50.920;6.936;2022-08-19T14:26:41;11.13;;;10.20;;
2458;SDS011;1241;50.920;6.936;2022-08-19T14:29:07;11.97;;;10.73;;
2458;SDS011;1241;50.920;6.936;2022-08-19T14:31:32;12.03;;;10.90;;
2458;SDS011;1241;50.920;6.936;2022-08-19T14:33:58;12.13;;;11.03;;
2458;SDS011;1241;50.920;6.936;2022-08-19T14:36:24;9.67;;;8.77;;
2458;SDS011;1241;50.920;6.936;2022-08-19T14:38:50;10.97;;;9.90;;
2458;SDS011;1241;50.920;6.936;2022-08-19T14:41:16;11.00;;;9.90;;
2458;SDS011;1241;50.920;6.936;2022-08-19T14:43:48;11.43;;;10.00;;
2458;SDS011;1241;50.920;6.936;2022-08-19T14:50:02;11.17;;;9.53;;
2458;SDS011;1241;50.920;6.936;2022-08-19T14:52:31;10.20;;;9.23;;
2458;SDS011;1241;50.920;6.936;2022-08-19T14:58:14;8.23;;;7.00;;
2458;SDS011;1241;50.920;6.936;2022-08-19T15:00:58;11.53;;;10.47;;
2458;SDS011;1241;50.920;6.936;2022-08-19T15:09:00;8.50;;;7.10;;
2458;SDS011;1241;50.920;6.936;2022-08-19T15:11:27;11.87;;;8.00;;
2458;SDS011;1241;50.920;6.936;2022-08-19T15:13:56;8.40;;;7.30;;
2458;SDS011;1241;50.920;6.936;2022-08-19T15:16:22;7.00;;;6.30;;
2458;SDS011;1241;50.920;6.936;2022-08-19T15:18:52;8.13;;;7.50;;
2458;SDS011;1241;50.920;6.936;2022-08-19T15:21:19;84.37;;;75.50;;
2458;SDS011;1241;50.920;6.936;2022-08-19T15:23:46;75.93;;;67.80;;
2458;SDS011;1241;50.920;6.936;2022-08-19T15:26:14;28.93;;;25.93;;
2458;SDS011;1241;50.920;6.936;2022-08-19T15:28:40;14.80;;;13.40;;
2458;SDS011;1241;50.920;6.936;2022-08-19T15:31:07;15.53;;;12.90;;